sensor_id;sensor_type;location;lat;lon;timestamp;P1;durP1;ratioP1;P2;durP2;ratioP2
16101;SDS011;56411;52.964;10.540;2023-06-19T00:00:18;13.82;;;9.70;;
16101;SDS011;56411;52.964;10.540;2023-06-19T00:02:45;14.73;;;9.65;;
16101;SDS011;56411;52.964;10.540;2023-06-19T00:05:12;12.73;;;9.57;;
16101;SDS011;56411;52.964;10.540;2023-06-19T00:07:40;12.75;;;9.55;;
16101;SDS011;56411;52.964;10.540;2023-06-19T00:10:07;14.60;;;10.50;;
16101;SDS011;56411;52.964;10.540;2023-06-19T00:12:34;14.27;;;10.25;;
16101;SDS011;56411;52.964;10.540;2023-06-19T00:15:02;12.85;;;9.85;;
16101;SDS011;56411;52.964;10.540;2023-06-19T00:17:29;15.23;;;10.95;;
16101;SDS011;56411;52.964;10.540;2023-06-19T00:19:56;13.98;;;10.40;;
16101;SDS011;56411;52.964;10.540;2023-06-19T00:22:24;13.75;;;10.70;;
16101;SDS011;56411;52.964;10.540;2023-06-19T00:24:53;15.13;;;11.00;;
16101;SDS011;56411;52.964;10.540;2023-06-19T00:27:20;14.60;;;10.48;;
16101;SDS011;56411;52.964;10.540;2023-06-19T00:29:49;14.00;;;11.02;;
16101;SDS011;56411;52.964;10.540;2023-06-19T00:32:16;13.80;;;10.57;;
16101;SDS011;56411;52.964;10.540;2023-06-19T00:34:43;14.07;;;10.90;;
16101;SDS011;56411;52.964;10.540;2023-06-19T00:37:10;14.30;;;11.02;;
16101;SDS011;56411;52.964;10.540;2023-06-19T00:39:38;14.20;;;10.50;;
16101;SDS011;56411;52.964;10.540;2023-06-19T00:42:07;14.50;;;11.27;;
16101;SDS011;56411;52.964;10.540;2023-06-19T00:44:34;14.30;;;10.85;;
16101;SDS011;56411;52.964;10.540;2023-06-19T00:47:02;15.23;;;10.85;;
16101;SDS011;56411;52.964;10.540;2023-06-19T00:49:30;13.85;;;10.60;;
16101;SDS011;56411;52.964;10.540;2023-06-19T00:51:58;13.82;;;10.60;;
16101;SDS011;56411;52.964;10.540;2023-06-19T00:54:25;15.02;;;10.38;;
16101;SDS011;56411;52.964;10.540;2023-06-19T00:56:52;14.55;;;10.70;;
16101;SDS011;56411;52.964;10.540;2023-06-19T00:59:21;14.55;;;10.63;;
16101;SDS011;56411;52.964;10.540;2023-06-19T01:01:48;14.57;;;10.15;;
16101;SDS011;56411;52.964;10.540;2023-06-19T01:04:15;15.10;;;11.23;;
16101;SDS011;56411;52.964;10.540;2023-06-19T01:06:43;14.40;;;10.52;;
16101;SDS011;56411;52.964;10.540;2023-06-19T01:09:17;13.27;;;10.30;;
16101;SDS011;56411;52.964;10.540;2023-06-19T01:11:48;15.05;;;10.38;;
16101;SDS011;56411;52.964;10.540;2023-06-19T01:14:18;12.95;;;10.15;;
16101;SDS011;56411;52.964;10.540;2023-06-19T01:16:49;14.18;;;10.65;;
16101;SDS011;56411;52.964;10.540;2023-06-19T01:19:19;13.43;;;10.32;;
16101;SDS011;56411;52.964;10.540;2023-06-19T01:21:47;13.98;;;10.10;;
16101;SDS011;56411;52.964;10.540;2023-06-19T01:24:16;13.98;;;10.18;;
16101;SDS011;56411;52.964;10.540;2023-06-19T01:26:43;14.23;;;10.70;;
16101;SDS011;56411;52.964;10.540;2023-06-19T01:29:11;13.25;;;10.25;;
16101;SDS011;56411;52.964;10.540;2023-06-19T01:31:42;15.10;;;10.40;;
16101;SDS011;56411;52.964;10.540;2023-06-19T01:34:15;14.05;;;9.88;;
16101;SDS011;56411;52.964;10.540;2023-06-19T01:36:46;13.45;;;10.07;;
16101;SDS011;56411;52.964;10.540;2023-06-19T01:39:14;15.30;;;10.57;;
16101;SDS011;56411;52.964;10.540;2023-06-19T01:41:44;13.82;;;10.10;;
16101;SDS011;56411;52.964;10.540;2023-06-19T01:44:12;13.80;;;10.38;;
16101;SDS011;56411;52.964;10.540;2023-06-19T01:46:39;13.60;;;10.27;;
16101;SDS011;56411;52.964;10.540;2023-06-19T01:49:07;13.18;;;10.35;;
16101;SDS011;56411;52.964;10.540;2023-06-19T01:51:35;13.38;;;10.07;;
16101;SDS011;56411;52.964;10.540;2023-06-19T01:54:02;13.70;;;10.55;;
16101;SDS011;56411;52.964;10.540;2023-06-19T01:56:31;14.30;;;10.57;;
16101;SDS011;56411;52.964;10.540;2023-06-19T01:58:58;12.90;;;10.35;;
16101;SDS011;56411;52.964;10.540;2023-06-19T02:01:25;14.35;;;10.63;;
16101;SDS011;56411;52.964;10.540;2023-06-19T02:03:52;13.80;;;10.48;;
16101;SDS011;56411;52.964;10.540;2023-06-19T02:06:19;13.95;;;10.65;;
16101;SDS011;56411;52.964;10.540;2023-06-19T02:08:47;13.70;;;10.60;;
16101;SDS011;56411;52.964;10.540;2023-06-19T02:11:14;14.55;;;10.30;;
16101;SDS011;56411;52.964;10.540;2023-06-19T02:13:43;14.57;;;10.25;;
16101;SDS011;56411;52.964;10.540;2023-06-19T02:16:10;15.07;;;10.05;;
16101;SDS011;56411;52.964;10.540;2023-06-19T02:18:37;14.25;;;10.30;;
16101;SDS011;56411;52.964;10.540;2023-06-19T02:21:04;14.23;;;11.00;;
16101;SDS011;56411;52.964;10.540;2023-06-19T02:23:31;15.95;;;10.60;;
16101;SDS011;56411;52.964;10.540;2023-06-19T02:25:58;18.88;;;14.82;;
16101;SDS011;56411;52.964;10.540;2023-06-19T02:28:25;17.35;;;13.05;;
16101;SDS011;56411;52.964;10.540;2023-06-19T02:30:54;19.60;;;15.95;;
16101;SDS011;56411;52.964;10.540;2023-06-19T02:33:21;17.35;;;13.50;;
16101;SDS011;56411;52.964;10.540;2023-06-19T02:35:48;15.30;;;12.07;;
16101;SDS011;56411;52.964;10.540;2023-06-19T02:38:15;14.32;;;10.98;;
16101;SDS011;56411;52.964;10.540;2023-06-19T02:40:46;16.17;;;10.85;;
16101;SDS011;56411;52.964;10.540;2023-06-19T02:43:13;16.13;;;10.52;;
16101;SDS011;56411;52.964;10.540;2023-06-19T02:45:40;15.88;;;10.63;;
16101;SDS011;56411;52.964;10.540;2023-06-19T02:48:09;13.65;;;10.32;;
16101;SDS011;56411;52.964;10.540;2023-06-19T02:50:36;14.18;;;10.43;;
16101;SDS011;56411;52.964;10.540;2023-06-19T02:53:03;14.35;;;10.65;;
16101;SDS011;56411;52.964;10.540;2023-06-19T02:55:30;14.13;;;11.20;;
16101;SDS011;56411;52.964;10.540;2023-06-19T02:57:57;13.75;;;10.30;;
16101;SDS011;56411;52.964;10.540;2023-06-19T03:00:25;14.75;;;10.93;;
16101;SDS011;56411;52.964;10.540;2023-06-19T03:02:53;14.80;;;10.85;;
16101;SDS011;56411;52.964;10.540;2023-06-19T03:05:22;15.38;;;11.20;;
16101;SDS011;56411;52.964;10.540;2023-06-19T03:07:49;13.70;;;10.13;;
16101;SDS011;56411;52.964;10.540;2023-06-19T03:10:16;13.82;;;10.25;;
16101;SDS011;56411;52.964;10.540;2023-06-19T03:12:43;15.30;;;11.00;;
16101;SDS011;56411;52.964;10.540;2023-06-19T03:15:13;15.68;;;10.63;;
16101;SDS011;56411;52.964;10.540;2023-06-19T03:17:40;14.80;;;11.32;;
16101;SDS011;56411;52.964;10.540;2023-06-19T03:20:07;15.20;;;11.43;;
16101;SDS011;56411;52.964;10.540;2023-06-19T03:22:39;15.38;;;10.55;;
16101;SDS011;56411;52.964;10.540;2023-06-19T03:25:06;14.52;;;11.35;;
16101;SDS011;56411;52.964;10.540;2023-06-19T03:27:34;14.55;;;11.18;;
16101;SDS011;56411;52.964;10.540;2023-06-19T03:30:01;14.85;;;10.88;;
16101;SDS011;56411;52.964;10.540;2023-06-19T03:32:31;16.33;;;11.80;;
16101;SDS011;56411;52.964;10.540;2023-06-19T03:34:58;14.10;;;11.07;;
16101;SDS011;56411;52.964;10.540;2023-06-19T03:37:25;15.88;;;11.77;;
16101;SDS011;56411;52.964;10.540;2023-06-19T03:39:54;15.32;;;11.15;;
16101;SDS011;56411;52.964;10.540;2023-06-19T03:42:21;15.02;;;11.73;;
16101;SDS011;56411;52.964;10.540;2023-06-19T03:44:48;14.20;;;11.50;;
16101;SDS011;56411;52.964;10.540;2023-06-19T03:47:15;14.10;;;11.13;;
16101;SDS011;56411;52.964;10.540;2023-06-19T03:49:43;15.75;;;12.07;;
16101;SDS011;56411;52.964;10.540;2023-06-19T03:52:10;15.20;;;11.23;;
16101;SDS011;56411;52.964;10.540;2023-06-19T03:54:37;15.05;;;10.93;;
16101;SDS011;56411;52.964;10.540;2023-06-19T03:57:06;14.95;;;10.90;;
16101;SDS011;56411;52.964;10.540;2023-06-19T03:59:34;14.23;;;11.18;;
16101;SDS011;56411;52.964;10.540;2023-06-19T04:02:01;14.25;;;11.05;;
16101;SDS011;56411;52.964;10.540;2023-06-19T04:04:28;15.25;;;12.15;;
16101;SDS011;56411;52.964;10.540;2023-06-19T04:06:55;16.60;;;12.07;;
16101;SDS011;56411;52.964;10.540;2023-06-19T04:09:22;14.88;;;11.35;;
16101;SDS011;56411;52.964;10.540;2023-06-19T04:11:49;15.60;;;11.32;;
16101;SDS011;56411;52.964;10.540;2023-06-19T04:14:17;15.15;;;11.38;;
16101;SDS011;56411;52.964;10.540;2023-06-19T04:16:44;14.20;;;10.45;;
16101;SDS011;56411;52.964;10.540;2023-06-19T04:19:11;15.68;;;11.38;;
16101;SDS011;56411;52.964;10.540;2023-06-19T04:21:38;14.40;;;11.13;;
16101;SDS011;56411;52.964;10.540;2023-06-19T04:24:05;15.23;;;10.63;;
16101;SDS011;56411;52.964;10.540;2023-06-19T04:26:34;13.68;;;10.85;;
16101;SDS011;56411;52.964;10.540;2023-06-19T04:29:01;15.02;;;11.18;;
16101;SDS011;56411;52.964;10.540;2023-06-19T04:31:32;14.85;;;11.32;;
16101;SDS011;56411;52.964;10.540;2023-06-19T04:34:05;15.35;;;11.55;;
16101;SDS011;56411;52.964;10.540;2023-06-19T04:36:33;15.43;;;10.80;;
16101;SDS011;56411;52.964;10.540;2023-06-19T04:38:59;16.77;;;11.45;;
16101;SDS011;56411;52.964;10.540;2023-06-19T04:41:27;14.77;;;11.40;;
16101;SDS011;56411;52.964;10.540;2023-06-19T04:43:54;14.15;;;11.18;;
16101;SDS011;56411;52.964;10.540;2023-06-19T04:46:21;16.70;;;11.73;;
16101;SDS011;56411;52.964;10.540;2023-06-19T04:48:49;16.55;;;11.88;;
16101;SDS011;56411;52.964;10.540;2023-06-19T04:51:17;15.25;;;11.40;;
16101;SDS011;56411;52.964;10.540;2023-06-19T04:53:46;15.85;;;11.02;;
16101;SDS011;56411;52.964;10.540;2023-06-19T04:56:13;13.82;;;11.18;;
16101;SDS011;56411;52.964;10.540;2023-06-19T04:58:40;15.40;;;11.57;;
16101;SDS011;56411;52.964;10.540;2023-06-19T05:01:11;14.68;;;11.02;;
16101;SDS011;56411;52.964;10.540;2023-06-19T05:03:38;14.48;;;11.18;;
16101;SDS011;56411;52.964;10.540;2023-06-19T05:06:08;15.13;;;11.32;;
16101;SDS011;56411;52.964;10.540;2023-06-19T05:08:35;15.93;;;11.63;;
16101;SDS011;56411;52.964;10.540;2023-06-19T05:11:02;15.18;;;10.85;;
16101;SDS011;56411;52.964;10.540;2023-06-19T05:13:30;14.80;;;11.48;;
16101;SDS011;56411;52.964;10.540;2023-06-19T05:15:57;14.20;;;11.18;;
16101;SDS011;56411;52.964;10.540;2023-06-19T05:18:25;14.40;;;11.73;;
16101;SDS011;56411;52.964;10.540;2023-06-19T05:20:52;16.02;;;11.93;;
16101;SDS011;56411;52.964;10.540;2023-06-19T05:23:20;15.45;;;11.57;;
16101;SDS011;56411;52.964;10.540;2023-06-19T05:25:47;14.27;;;10.80;;
16101;SDS011;56411;52.964;10.540;2023-06-19T05:28:15;14.40;;;11.18;;
16101;SDS011;56411;52.964;10.540;2023-06-19T05:30:42;14.45;;;11.15;;
16101;SDS011;56411;52.964;10.540;2023-06-19T05:33:09;15.07;;;11.23;;
16101;SDS011;56411;52.964;10.540;2023-06-19T05:35:41;14.90;;;11.88;;
16101;SDS011;56411;52.964;10.540;2023-06-19T05:38:08;15.27;;;11.35;;
16101;SDS011;56411;52.964;10.540;2023-06-19T05:40:37;15.55;;;11.55;;
16101;SDS011;56411;52.964;10.540;2023-06-19T05:43:04;14.85;;;11.05;;
16101;SDS011;56411;52.964;10.540;2023-06-19T05:45:31;16.40;;;11.75;;
16101;SDS011;56411;52.964;10.540;2023-06-19T05:47:58;13.45;;;10.75;;
16101;SDS011;56411;52.964;10.540;2023-06-19T05:50:25;16.35;;;11.70;;
16101;SDS011;56411;52.964;10.540;2023-06-19T05:52:52;14.88;;;11.20;;
16101;SDS011;56411;52.964;10.540;2023-06-19T05:55:19;17.80;;;11.82;;
16101;SDS011;56411;52.964;10.540;2023-06-19T05:57:48;14.18;;;11.75;;
16101;SDS011;56411;52.964;10.540;2023-06-19T06:00:15;14.98;;;11.82;;
16101;SDS011;56411;52.964;10.540;2023-06-19T06:02:44;15.65;;;11.98;;
16101;SDS011;56411;52.964;10.540;2023-06-19T06:05:11;14.68;;;11.75;;
16101;SDS011;56411;52.964;10.540;2023-06-19T06:07:38;15.98;;;11.95;;
16101;SDS011;56411;52.964;10.540;2023-06-19T06:10:05;16.10;;;11.90;;
16101;SDS011;56411;52.964;10.540;2023-06-19T06:12:33;16.20;;;12.20;;
16101;SDS011;56411;52.964;10.540;2023-06-19T06:15:02;15.60;;;11.43;;
16101;SDS011;56411;52.964;10.540;2023-06-19T06:17:31;14.07;;;11.38;;
16101;SDS011;56411;52.964;10.540;2023-06-19T06:19:58;16.48;;;11.20;;
16101;SDS011;56411;52.964;10.540;2023-06-19T06:22:25;14.15;;;11.25;;
16101;SDS011;56411;52.964;10.540;2023-06-19T06:24:52;14.52;;;11.40;;
16101;SDS011;56411;52.964;10.540;2023-06-19T06:27:19;14.95;;;11.18;;
16101;SDS011;56411;52.964;10.540;2023-06-19T06:29:46;15.13;;;11.10;;
16101;SDS011;56411;52.964;10.540;2023-06-19T06:32:15;14.02;;;11.00;;
16101;SDS011;56411;52.964;10.540;2023-06-19T06:34:42;15.35;;;11.35;;
16101;SDS011;56411;52.964;10.540;2023-06-19T06:37:09;15.15;;;10.98;;
16101;SDS011;56411;52.964;10.540;2023-06-19T06:39:36;14.95;;;11.77;;
16101;SDS011;56411;52.964;10.540;2023-06-19T06:42:04;15.85;;;11.77;;
16101;SDS011;56411;52.964;10.540;2023-06-19T06:44:31;15.10;;;11.30;;
16101;SDS011;56411;52.964;10.540;2023-06-19T06:46:58;15.00;;;11.65;;
16101;SDS011;56411;52.964;10.540;2023-06-19T06:49:27;16.40;;;11.80;;
16101;SDS011;56411;52.964;10.540;2023-06-19T06:51:54;16.30;;;11.88;;
16101;SDS011;56411;52.964;10.540;2023-06-19T06:54:21;15.95;;;12.32;;
16101;SDS011;56411;52.964;10.540;2023-06-19T06:56:48;16.25;;;12.27;;
16101;SDS011;56411;52.964;10.540;2023-06-19T06:59:17;15.50;;;12.50;;
16101;SDS011;56411;52.964;10.540;2023-06-19T07:01:44;17.17;;;12.20;;
16101;SDS011;56411;52.964;10.540;2023-06-19T07:04:11;15.52;;;12.13;;
16101;SDS011;56411;52.964;10.540;2023-06-19T07:06:40;17.38;;;13.07;;
16101;SDS011;56411;52.964;10.540;2023-06-19T07:09:07;15.10;;;11.85;;
16101;SDS011;56411;52.964;10.540;2023-06-19T07:11:35;15.15;;;12.43;;
16101;SDS011;56411;52.964;10.540;2023-06-19T07:14:02;15.05;;;11.55;;
16101;SDS011;56411;52.964;10.540;2023-06-19T07:16:29;15.07;;;12.27;;
16101;SDS011;56411;52.964;10.540;2023-06-19T07:18:56;14.90;;;12.05;;
16101;SDS011;56411;52.964;10.540;2023-06-19T07:21:23;15.85;;;11.90;;
16101;SDS011;56411;52.964;10.540;2023-06-19T07:23:52;14.70;;;12.23;;
16101;SDS011;56411;52.964;10.540;2023-06-19T07:26:19;16.83;;;12.02;;
16101;SDS011;56411;52.964;10.540;2023-06-19T07:28:46;14.82;;;11.57;;
16101;SDS011;56411;52.964;10.540;2023-06-19T07:31:13;16.13;;;12.25;;
16101;SDS011;56411;52.964;10.540;2023-06-19T07:33:40;16.45;;;12.15;;
16101;SDS011;56411;52.964;10.540;2023-06-19T07:36:07;14.60;;;12.00;;
16101;SDS011;56411;52.964;10.540;2023-06-19T07:38:39;15.77;;;12.15;;
16101;SDS011;56411;52.964;10.540;2023-06-19T07:41:07;15.40;;;12.25;;
16101;SDS011;56411;52.964;10.540;2023-06-19T07:43:35;15.55;;;12.20;;
16101;SDS011;56411;52.964;10.540;2023-06-19T07:46:02;15.60;;;12.82;;
16101;SDS011;56411;52.964;10.540;2023-06-19T07:48:29;18.10;;;12.93;;
16101;SDS011;56411;52.964;10.540;2023-06-19T07:50:56;15.20;;;12.10;;
16101;SDS011;56411;52.964;10.540;2023-06-19T07:53:24;14.88;;;12.18;;
16101;SDS011;56411;52.964;10.540;2023-06-19T07:55:51;16.83;;;12.95;;
16101;SDS011;56411;52.964;10.540;2023-06-19T07:58:19;15.02;;;12.52;;
16101;SDS011;56411;52.964;10.540;2023-06-19T08:00:47;14.88;;;12.00;;
16101;SDS011;56411;52.964;10.540;2023-06-19T08:03:14;16.08;;;12.27;;
16101;SDS011;56411;52.964;10.540;2023-06-19T08:05:41;15.90;;;12.48;;
16101;SDS011;56411;52.964;10.540;2023-06-19T08:08:08;16.20;;;12.13;;
16101;SDS011;56411;52.964;10.540;2023-06-19T08:10:36;16.42;;;12.35;;
16101;SDS011;56411;52.964;10.540;2023-06-19T08:13:03;15.88;;;12.85;;
16101;SDS011;56411;52.964;10.540;2023-06-19T08:15:31;19.27;;;17.20;;
16101;SDS011;56411;52.964;10.540;2023-06-19T08:17:58;17.27;;;12.77;;
16101;SDS011;56411;52.964;10.540;2023-06-19T08:20:26;14.88;;;11.93;;
16101;SDS011;56411;52.964;10.540;2023-06-19T08:22:53;14.93;;;11.88;;
16101;SDS011;56411;52.964;10.540;2023-06-19T08:25:21;14.77;;;11.25;;
16101;SDS011;56411;52.964;10.540;2023-06-19T08:27:48;14.50;;;11.05;;
16101;SDS011;56411;52.964;10.540;2023-06-19T08:30:15;15.27;;;11.27;;
16101;SDS011;56411;52.964;10.540;2023-06-19T08:32:45;14.50;;;11.48;;
16101;SDS011;56411;52.964;10.540;2023-06-19T08:35:13;14.98;;;12.05;;
16101;SDS011;56411;52.964;10.540;2023-06-19T08:37:41;15.32;;;11.98;;
16101;SDS011;56411;52.964;10.540;2023-06-19T08:40:08;15.60;;;11.52;;
16101;SDS011;56411;52.964;10.540;2023-06-19T08:42:36;15.43;;;11.75;;
16101;SDS011;56411;52.964;10.540;2023-06-19T08:45:05;14.57;;;12.23;;
16101;SDS011;56411;52.964;10.540;2023-06-19T08:47:33;15.60;;;11.93;;
16101;SDS011;56411;52.964;10.540;2023-06-19T08:50:02;14.95;;;11.30;;
16101;SDS011;56411;52.964;10.540;2023-06-19T08:52:29;14.00;;;11.07;;
16101;SDS011;56411;52.964;10.540;2023-06-19T08:54:57;14.80;;;11.75;;
16101;SDS011;56411;52.964;10.540;2023-06-19T08:57:33;14.55;;;11.45;;
16101;SDS011;56411;52.964;10.540;2023-06-19T09:00:01;14.38;;;11.60;;
16101;SDS011;56411;52.964;10.540;2023-06-19T09:02:37;15.02;;;12.27;;
16101;SDS011;56411;52.964;10.540;2023-06-19T09:05:12;13.13;;;10.95;;
16101;SDS011;56411;52.964;10.540;2023-06-19T09:07:40;13.77;;;11.45;;
16101;SDS011;56411;52.964;10.540;2023-06-19T09:10:12;14.20;;;11.15;;
16101;SDS011;56411;52.964;10.540;2023-06-19T09:12:43;14.65;;;11.52;;
16101;SDS011;56411;52.964;10.540;2023-06-19T09:15:13;13.52;;;10.68;;
16101;SDS011;56411;52.964;10.540;2023-06-19T09:17:41;14.07;;;10.77;;
16101;SDS011;56411;52.964;10.540;2023-06-19T09:20:09;14.43;;;11.07;;
16101;SDS011;56411;52.964;10.540;2023-06-19T09:22:38;12.82;;;10.38;;
16101;SDS011;56411;52.964;10.540;2023-06-19T09:25:06;14.68;;;10.52;;
16101;SDS011;56411;52.964;10.540;2023-06-19T09:27:35;14.63;;;11.05;;
16101;SDS011;56411;52.964;10.540;2023-06-19T09:30:04;14.05;;;10.20;;
16101;SDS011;56411;52.964;10.540;2023-06-19T09:32:33;13.40;;;10.63;;
16101;SDS011;56411;52.964;10.540;2023-06-19T09:35:00;14.38;;;11.32;;
16101;SDS011;56411;52.964;10.540;2023-06-19T09:37:30;14.50;;;10.85;;
16101;SDS011;56411;52.964;10.540;2023-06-19T09:39:58;13.30;;;10.55;;
16101;SDS011;56411;52.964;10.540;2023-06-19T09:42:26;13.05;;;10.00;;
16101;SDS011;56411;52.964;10.540;2023-06-19T09:44:57;13.43;;;10.70;;
16101;SDS011;56411;52.964;10.540;2023-06-19T09:47:27;13.23;;;10.60;;
16101;SDS011;56411;52.964;10.540;2023-06-19T09:49:57;15.43;;;10.38;;
16101;SDS011;56411;52.964;10.540;2023-06-19T09:52:25;14.60;;;10.68;;
16101;SDS011;56411;52.964;10.540;2023-06-19T09:54:54;13.73;;;10.10;;
16101;SDS011;56411;52.964;10.540;2023-06-19T09:57:23;13.35;;;10.65;;
16101;SDS011;56411;52.964;10.540;2023-06-19T09:59:52;13.55;;;10.73;;
16101;SDS011;56411;52.964;10.540;2023-06-19T10:02:21;12.93;;;10.30;;
16101;SDS011;56411;52.964;10.540;2023-06-19T10:04:50;13.13;;;10.25;;
16101;SDS011;56411;52.964;10.540;2023-06-19T10:07:18;14.45;;;10.65;;
16101;SDS011;56411;52.964;10.540;2023-06-19T10:10:01;13.05;;;10.38;;
16101;SDS011;56411;52.964;10.540;2023-06-19T10:12:34;13.73;;;9.63;;
16101;SDS011;56411;52.964;10.540;2023-06-19T10:15:09;12.85;;;9.60;;
16101;SDS011;56411;52.964;10.540;2023-06-19T10:17:43;12.98;;;9.90;;
16101;SDS011;56411;52.964;10.540;2023-06-19T10:20:24;12.77;;;9.48;;
16101;SDS011;56411;52.964;10.540;2023-06-19T10:22:58;12.85;;;9.80;;
16101;SDS011;56411;52.964;10.540;2023-06-19T10:25:29;13.05;;;9.82;;
16101;SDS011;56411;52.964;10.540;2023-06-19T10:27:57;12.77;;;9.55;;
16101;SDS011;56411;52.964;10.540;2023-06-19T10:30:25;13.25;;;9.23;;
16101;SDS011;56411;52.964;10.540;2023-06-19T10:32:52;12.73;;;9.15;;
16101;SDS011;56411;52.964;10.540;2023-06-19T10:35:20;12.05;;;9.40;;
16101;SDS011;56411;52.964;10.540;2023-06-19T10:37:49;12.73;;;9.05;;
16101;SDS011;56411;52.964;10.540;2023-06-19T10:40:17;11.73;;;9.25;;
16101;SDS011;56411;52.964;10.540;2023-06-19T10:42:45;12.68;;;9.50;;
16101;SDS011;56411;52.964;10.540;2023-06-19T10:45:13;13.68;;;8.80;;
16101;SDS011;56411;52.964;10.540;2023-06-19T10:47:42;12.68;;;8.88;;
16101;SDS011;56411;52.964;10.540;2023-06-19T10:50:10;12.45;;;8.77;;
16101;SDS011;56411;52.964;10.540;2023-06-19T10:52:41;12.52;;;9.23;;
16101;SDS011;56411;52.964;10.540;2023-06-19T10:55:09;12.43;;;8.82;;
16101;SDS011;56411;52.964;10.540;2023-06-19T10:57:39;12.52;;;9.35;;
16101;SDS011;56411;52.964;10.540;2023-06-19T11:00:08;12.35;;;9.05;;
16101;SDS011;56411;52.964;10.540;2023-06-19T11:02:38;12.20;;;9.25;;
16101;SDS011;56411;52.964;10.540;2023-06-19T11:05:08;11.95;;;9.10;;
16101;SDS011;56411;52.964;10.540;2023-06-19T11:07:37;12.82;;;9.23;;
16101;SDS011;56411;52.964;10.540;2023-06-19T11:10:05;13.35;;;9.73;;
16101;SDS011;56411;52.964;10.540;2023-06-19T11:12:33;11.68;;;8.27;;
16101;SDS011;56411;52.964;10.540;2023-06-19T11:15:02;11.73;;;8.40;;
16101;SDS011;56411;52.964;10.540;2023-06-19T11:17:33;11.07;;;8.30;;
16101;SDS011;56411;52.964;10.540;2023-06-19T11:20:00;12.18;;;8.52;;
16101;SDS011;56411;52.964;10.540;2023-06-19T11:22:37;12.18;;;8.18;;
16101;SDS011;56411;52.964;10.540;2023-06-19T11:25:06;12.27;;;8.40;;
16101;SDS011;56411;52.964;10.540;2023-06-19T11:27:36;12.57;;;8.68;;
16101;SDS011;56411;52.964;10.540;2023-06-19T11:30:05;11.52;;;8.57;;
16101;SDS011;56411;52.964;10.540;2023-06-19T11:32:36;12.77;;;7.85;;
16101;SDS011;56411;52.964;10.540;2023-06-19T11:35:07;11.55;;;8.43;;
16101;SDS011;56411;52.964;10.540;2023-06-19T11:37:36;11.75;;;8.55;;
16101;SDS011;56411;52.964;10.540;2023-06-19T11:40:06;13.70;;;8.73;;
16101;SDS011;56411;52.964;10.540;2023-06-19T11:42:45;14.07;;;8.70;;
16101;SDS011;56411;52.964;10.540;2023-06-19T11:45:18;11.68;;;8.45;;
16101;SDS011;56411;52.964;10.540;2023-06-19T11:47:49;12.27;;;8.30;;
16101;SDS011;56411;52.964;10.540;2023-06-19T11:50:16;13.38;;;8.57;;
16101;SDS011;56411;52.964;10.540;2023-06-19T11:52:44;12.98;;;8.73;;
16101;SDS011;56411;52.964;10.540;2023-06-19T11:55:13;11.68;;;8.75;;
16101;SDS011;56411;52.964;10.540;2023-06-19T11:57:41;13.82;;;8.50;;
16101;SDS011;56411;52.964;10.540;2023-06-19T12:00:13;13.05;;;7.63;;
16101;SDS011;56411;52.964;10.540;2023-06-19T12:02:43;11.30;;;8.00;;
16101;SDS011;56411;52.964;10.540;2023-06-19T12:05:13;11.32;;;7.85;;
16101;SDS011;56411;52.964;10.540;2023-06-19T12:07:40;11.40;;;7.13;;
16101;SDS011;56411;52.964;10.540;2023-06-19T12:10:08;11.25;;;7.80;;
16101;SDS011;56411;52.964;10.540;2023-06-19T12:12:37;11.90;;;7.75;;
16101;SDS011;56411;52.964;10.540;2023-06-19T12:15:05;11.57;;;7.35;;
16101;SDS011;56411;52.964;10.540;2023-06-19T12:17:33;10.65;;;6.82;;
16101;SDS011;56411;52.964;10.540;2023-06-19T12:20:00;11.70;;;7.30;;
16101;SDS011;56411;52.964;10.540;2023-06-19T12:22:32;10.95;;;6.90;;
16101;SDS011;56411;52.964;10.540;2023-06-19T12:24:59;10.30;;;7.05;;
16101;SDS011;56411;52.964;10.540;2023-06-19T12:27:26;10.18;;;6.93;;
16101;SDS011;56411;52.964;10.540;2023-06-19T12:29:54;10.60;;;7.03;;
16101;SDS011;56411;52.964;10.540;2023-06-19T12:32:21;12.05;;;6.70;;
16101;SDS011;56411;52.964;10.540;2023-06-19T12:34:48;10.60;;;7.15;;
16101;SDS011;56411;52.964;10.540;2023-06-19T12:37:19;11.40;;;7.30;;
16101;SDS011;56411;52.964;10.540;2023-06-19T12:39:49;10.13;;;6.97;;
16101;SDS011;56411;52.964;10.540;2023-06-19T12:42:17;11.40;;;6.68;;
16101;SDS011;56411;52.964;10.540;2023-06-19T12:44:44;10.80;;;6.50;;
16101;SDS011;56411;52.964;10.540;2023-06-19T12:47:12;10.15;;;6.63;;
16101;SDS011;56411;52.964;10.540;2023-06-19T12:49:40;11.13;;;6.53;;
16101;SDS011;56411;52.964;10.540;2023-06-19T12:52:07;12.20;;;6.85;;
16101;SDS011;56411;52.964;10.540;2023-06-19T12:54:35;11.18;;;6.90;;
16101;SDS011;56411;52.964;10.540;2023-06-19T12:57:04;10.60;;;6.47;;
16101;SDS011;56411;52.964;10.540;2023-06-19T12:59:31;11.73;;;6.68;;
16101;SDS011;56411;52.964;10.540;2023-06-19T13:01:58;9.75;;;6.47;;
16101;SDS011;56411;52.964;10.540;2023-06-19T13:04:25;11.68;;;6.55;;
16101;SDS011;56411;52.964;10.540;2023-06-19T13:06:52;10.35;;;6.35;;
16101;SDS011;56411;52.964;10.540;2023-06-19T13:09:20;9.80;;;6.68;;
16101;SDS011;56411;52.964;10.540;2023-06-19T13:11:47;9.95;;;6.40;;
16101;SDS011;56411;52.964;10.540;2023-06-19T13:14:16;9.93;;;6.07;;
16101;SDS011;56411;52.964;10.540;2023-06-19T13:16:43;9.77;;;6.22;;
16101;SDS011;56411;52.964;10.540;2023-06-19T13:19:10;9.60;;;6.13;;
16101;SDS011;56411;52.964;10.540;2023-06-19T13:21:37;11.27;;;6.28;;
16101;SDS011;56411;52.964;10.540;2023-06-19T13:24:05;10.50;;;6.10;;
16101;SDS011;56411;52.964;10.540;2023-06-19T13:26:32;9.68;;;6.50;;
16101;SDS011;56411;52.964;10.540;2023-06-19T13:28:59;9.48;;;6.13;;
16101;SDS011;56411;52.964;10.540;2023-06-19T13:31:28;9.32;;;6.35;;
16101;SDS011;56411;52.964;10.540;2023-06-19T13:33:55;10.90;;;6.30;;
16101;SDS011;56411;52.964;10.540;2023-06-19T13:36:22;9.18;;;6.15;;
16101;SDS011;56411;52.964;10.540;2023-06-19T13:38:51;9.65;;;6.00;;
16101;SDS011;56411;52.964;10.540;2023-06-19T13:41:19;10.45;;;6.10;;
16101;SDS011;56411;52.964;10.540;2023-06-19T13:43:48;9.45;;;5.63;;
16101;SDS011;56411;52.964;10.540;2023-06-19T13:46:16;9.55;;;5.78;;
16101;SDS011;56411;52.964;10.540;2023-06-19T13:48:44;8.88;;;4.97;;
16101;SDS011;56411;52.964;10.540;2023-06-19T13:51:15;9.38;;;5.68;;
16101;SDS011;56411;52.964;10.540;2023-06-19T13:53:42;8.55;;;5.22;;
16101;SDS011;56411;52.964;10.540;2023-06-19T13:56:10;9.00;;;5.18;;
16101;SDS011;56411;52.964;10.540;2023-06-19T13:58:37;7.43;;;4.65;;
16101;SDS011;56411;52.964;10.540;2023-06-19T14:01:04;9.55;;;5.43;;
16101;SDS011;56411;52.964;10.540;2023-06-19T14:03:32;8.40;;;5.10;;
16101;SDS011;56411;52.964;10.540;2023-06-19T14:06:00;7.60;;;4.93;;
16101;SDS011;56411;52.964;10.540;2023-06-19T14:08:27;9.77;;;4.90;;
16101;SDS011;56411;52.964;10.540;2023-06-19T14:10:55;7.70;;;4.68;;
16101;SDS011;56411;52.964;10.540;2023-06-19T14:13:22;8.63;;;4.57;;
16101;SDS011;56411;52.964;10.540;2023-06-19T14:15:49;8.20;;;4.35;;
16101;SDS011;56411;52.964;10.540;2023-06-19T14:18:17;7.20;;;4.10;;